sensor_id;sensor_type;location;lat;lon;timestamp;P1;durP1;ratioP1;P2;durP2;ratioP2
15667;SDS011;7934;48.710;9.024;2022-09-12T00:01:35;13.23;;;11.07;;
15667;SDS011;7934;48.710;9.024;2022-09-12T00:04:02;19.03;;;11.47;;
15667;SDS011;7934;48.710;9.024;2022-09-12T00:06:30;15.27;;;11.97;;
15667;SDS011;7934;48.710;9.024;2022-09-12T00:08:57;16.70;;;10.97;;
15667;SDS011;7934;48.710;9.024;2022-09-12T00:11:25;17.33;;;11.97;;
15667;SDS011;7934;48.710;9.024;2022-09-12T00:13:54;15.17;;;11.87;;
15667;SDS011;7934;48.710;9.024;2022-09-12T00:16:23;18.40;;;11.83;;
15667;SDS011;7934;48.710;9.024;2022-09-12T00:18:51;14.40;;;11.53;;
15667;SDS011;7934;48.710;9.024;2022-09-12T00:21:20;16.90;;;11.83;;
15667;SDS011;7934;48.710;9.024;2022-09-12T00:23:47;16.33;;;12.37;;
15667;SDS011;7934;48.710;9.024;2022-09-12T00:26:15;17.77;;;11.87;;
15667;SDS011;7934;48.710;9.024;2022-09-12T00:28:42;15.70;;;12.00;;
15667;SDS011;7934;48.710;9.024;2022-09-12T00:31:10;17.47;;;11.20;;
15667;SDS011;7934;48.710;9.024;2022-09-12T00:33:38;17.37;;;11.30;;
15667;SDS011;7934;48.710;9.024;2022-09-12T00:36:07;16.63;;;10.70;;
15667;SDS011;7934;48.710;9.024;2022-09-12T00:38:35;17.43;;;11.47;;
15667;SDS011;7934;48.710;9.024;2022-09-12T00:41:05;19.53;;;12.47;;
15667;SDS011;7934;48.710;9.024;2022-09-12T00:43:34;17.83;;;11.07;;
15667;SDS011;7934;48.710;9.024;2022-09-12T00:46:03;15.77;;;11.97;;
15667;SDS011;7934;48.710;9.024;2022-09-12T00:48:32;17.07;;;13.03;;
15667;SDS011;7934;48.710;9.024;2022-09-12T00:51:01;18.97;;;12.47;;
15667;SDS011;7934;48.710;9.024;2022-09-12T00:53:30;19.93;;;12.40;;
15667;SDS011;7934;48.710;9.024;2022-09-12T00:55:57;19.17;;;12.17;;
15667;SDS011;7934;48.710;9.024;2022-09-12T00:58:25;16.40;;;11.73;;
15667;SDS011;7934;48.710;9.024;2022-09-12T01:00:53;21.80;;;12.80;;
15667;SDS011;7934;48.710;9.024;2022-09-12T01:03:21;18.30;;;11.77;;
15667;SDS011;7934;48.710;9.024;2022-09-12T01:05:51;16.70;;;11.60;;
15667;SDS011;7934;48.710;9.024;2022-09-12T01:08:19;18.27;;;12.23;;
15667;SDS011;7934;48.710;9.024;2022-09-12T01:10:48;18.13;;;12.40;;
15667;SDS011;7934;48.710;9.024;2022-09-12T01:13:15;15.53;;;12.33;;
15667;SDS011;7934;48.710;9.024;2022-09-12T01:15:43;14.67;;;10.90;;
15667;SDS011;7934;48.710;9.024;2022-09-12T01:18:12;24.27;;;12.37;;
15667;SDS011;7934;48.710;9.024;2022-09-12T01:23:52;16.43;;;11.60;;
15667;SDS011;7934;48.710;9.024;2022-09-12T01:29:13;20.33;;;12.70;;
15667;SDS011;7934;48.710;9.024;2022-09-12T01:31:45;17.07;;;11.83;;
15667;SDS011;7934;48.710;9.024;2022-09-12T01:34:16;23.07;;;12.63;;
15667;SDS011;7934;48.710;9.024;2022-09-12T01:36:47;18.07;;;12.37;;
15667;SDS011;7934;48.710;9.024;2022-09-12T01:39:19;16.97;;;11.67;;
15667;SDS011;7934;48.710;9.024;2022-09-12T01:41:52;17.07;;;11.30;;
15667;SDS011;7934;48.710;9.024;2022-09-12T01:44:22;18.07;;;12.13;;
15667;SDS011;7934;48.710;9.024;2022-09-12T01:46:54;18.97;;;11.73;;
15667;SDS011;7934;48.710;9.024;2022-09-12T01:49:22;16.47;;;11.93;;
15667;SDS011;7934;48.710;9.024;2022-09-12T01:51:54;20.60;;;12.33;;
15667;SDS011;7934;48.710;9.024;2022-09-12T01:54:24;17.07;;;12.13;;
15667;SDS011;7934;48.710;9.024;2022-09-12T01:56:53;19.50;;;11.20;;
15667;SDS011;7934;48.710;9.024;2022-09-12T01:59:23;19.67;;;11.73;;
15667;SDS011;7934;48.710;9.024;2022-09-12T02:01:52;19.70;;;12.33;;
15667;SDS011;7934;48.710;9.024;2022-09-12T02:04:23;16.90;;;12.13;;
15667;SDS011;7934;48.710;9.024;2022-09-12T02:06:52;19.57;;;12.77;;
15667;SDS011;7934;48.710;9.024;2022-09-12T02:09:21;17.27;;;11.33;;
15667;SDS011;7934;48.710;9.024;2022-09-12T02:11:49;16.50;;;12.03;;
15667;SDS011;7934;48.710;9.024;2022-09-12T02:14:19;22.17;;;11.83;;
15667;SDS011;7934;48.710;9.024;2022-09-12T02:16:47;15.80;;;11.20;;
15667;SDS011;7934;48.710;9.024;2022-09-12T02:19:16;16.80;;;11.00;;
15667;SDS011;7934;48.710;9.024;2022-09-12T02:21:49;16.50;;;11.70;;
15667;SDS011;7934;48.710;9.024;2022-09-12T02:24:17;18.30;;;10.83;;
15667;SDS011;7934;48.710;9.024;2022-09-12T02:26:48;13.97;;;11.13;;
15667;SDS011;7934;48.710;9.024;2022-09-12T02:29:16;17.07;;;12.37;;
15667;SDS011;7934;48.710;9.024;2022-09-12T02:31:44;17.07;;;12.13;;
15667;SDS011;7934;48.710;9.024;2022-09-12T02:34:13;16.77;;;11.37;;
15667;SDS011;7934;48.710;9.024;2022-09-12T02:36:47;18.17;;;11.83;;
15667;SDS011;7934;48.710;9.024;2022-09-12T02:39:15;22.43;;;12.67;;
15667;SDS011;7934;48.710;9.024;2022-09-12T02:41:44;18.10;;;12.03;;
15667;SDS011;7934;48.710;9.024;2022-09-12T02:44:11;23.07;;;12.70;;
15667;SDS011;7934;48.710;9.024;2022-09-12T02:46:40;17.33;;;11.63;;
15667;SDS011;7934;48.710;9.024;2022-09-12T02:49:08;21.10;;;11.43;;
15667;SDS011;7934;48.710;9.024;2022-09-12T02:51:35;21.47;;;12.47;;
15667;SDS011;7934;48.710;9.024;2022-09-12T02:54:04;24.70;;;12.03;;
15667;SDS011;7934;48.710;9.024;2022-09-12T02:56:32;17.80;;;11.57;;
15667;SDS011;7934;48.710;9.024;2022-09-12T02:59:00;17.67;;;10.57;;
15667;SDS011;7934;48.710;9.024;2022-09-12T03:01:34;16.70;;;11.53;;
15667;SDS011;7934;48.710;9.024;2022-09-12T03:04:11;18.63;;;11.40;;
15667;SDS011;7934;48.710;9.024;2022-09-12T03:06:44;15.57;;;11.13;;
15667;SDS011;7934;48.710;9.024;2022-09-12T03:09:17;16.77;;;11.77;;
15667;SDS011;7934;48.710;9.024;2022-09-12T03:11:53;26.30;;;13.33;;
15667;SDS011;7934;48.710;9.024;2022-09-12T03:14:31;23.10;;;12.80;;
15667;SDS011;7934;48.710;9.024;2022-09-12T03:17:04;15.57;;;10.70;;
15667;SDS011;7934;48.710;9.024;2022-09-12T03:19:35;19.80;;;12.37;;
15667;SDS011;7934;48.710;9.024;2022-09-12T03:22:07;19.77;;;11.50;;
15667;SDS011;7934;48.710;9.024;2022-09-12T03:24:41;14.10;;;11.17;;
15667;SDS011;7934;48.710;9.024;2022-09-12T03:27:11;19.50;;;12.20;;
15667;SDS011;7934;48.710;9.024;2022-09-12T03:29:40;19.00;;;11.17;;
15667;SDS011;7934;48.710;9.024;2022-09-12T03:32:09;15.97;;;11.77;;
15667;SDS011;7934;48.710;9.024;2022-09-12T03:34:36;16.23;;;11.70;;
15667;SDS011;7934;48.710;9.024;2022-09-12T03:37:03;16.77;;;11.00;;
15667;SDS011;7934;48.710;9.024;2022-09-12T03:39:31;15.77;;;11.03;;
15667;SDS011;7934;48.710;9.024;2022-09-12T03:41:59;18.60;;;11.50;;
15667;SDS011;7934;48.710;9.024;2022-09-12T03:44:26;20.07;;;12.20;;
15667;SDS011;7934;48.710;9.024;2022-09-12T03:46:54;16.80;;;11.43;;
15667;SDS011;7934;48.710;9.024;2022-09-12T03:49:21;21.23;;;11.67;;
15667;SDS011;7934;48.710;9.024;2022-09-12T03:51:48;30.20;;;12.27;;
15667;SDS011;7934;48.710;9.024;2022-09-12T03:54:15;21.20;;;11.93;;
15667;SDS011;7934;48.710;9.024;2022-09-12T03:56:42;19.20;;;12.00;;
15667;SDS011;7934;48.710;9.024;2022-09-12T03:59:10;16.13;;;11.20;;
15667;SDS011;7934;48.710;9.024;2022-09-12T04:01:38;17.30;;;11.07;;
15667;SDS011;7934;48.710;9.024;2022-09-12T04:04:07;17.23;;;11.20;;
15667;SDS011;7934;48.710;9.024;2022-09-12T04:06:34;14.67;;;9.93;;
15667;SDS011;7934;48.710;9.024;2022-09-12T04:09:02;20.30;;;11.60;;
15667;SDS011;7934;48.710;9.024;2022-09-12T04:11:29;17.07;;;11.03;;
15667;SDS011;7934;48.710;9.024;2022-09-12T04:13:56;20.60;;;11.27;;
15667;SDS011;7934;48.710;9.024;2022-09-12T04:16:25;17.33;;;10.27;;
15667;SDS011;7934;48.710;9.024;2022-09-12T04:18:52;17.60;;;11.13;;
15667;SDS011;7934;48.710;9.024;2022-09-12T04:21:20;19.10;;;11.23;;
15667;SDS011;7934;48.710;9.024;2022-09-12T04:23:47;22.53;;;10.87;;
15667;SDS011;7934;48.710;9.024;2022-09-12T04:26:15;18.93;;;11.67;;
15667;SDS011;7934;48.710;9.024;2022-09-12T04:28:42;20.87;;;11.93;;
15667;SDS011;7934;48.710;9.024;2022-09-12T04:31:11;17.50;;;10.57;;
15667;SDS011;7934;48.710;9.024;2022-09-12T04:33:41;21.20;;;12.20;;
15667;SDS011;7934;48.710;9.024;2022-09-12T04:36:09;19.23;;;12.13;;
15667;SDS011;7934;48.710;9.024;2022-09-12T04:38:36;17.23;;;11.03;;
15667;SDS011;7934;48.710;9.024;2022-09-12T04:41:10;18.53;;;11.40;;
15667;SDS011;7934;48.710;9.024;2022-09-12T04:43:37;17.57;;;11.37;;
15667;SDS011;7934;48.710;9.024;2022-09-12T04:46:04;18.47;;;11.20;;
15667;SDS011;7934;48.710;9.024;2022-09-12T04:48:32;17.53;;;11.70;;
15667;SDS011;7934;48.710;9.024;2022-09-12T04:51:06;19.60;;;11.30;;
15667;SDS011;7934;48.710;9.024;2022-09-12T04:53:33;17.67;;;11.60;;
15667;SDS011;7934;48.710;9.024;2022-09-12T04:56:01;18.53;;;11.90;;
15667;SDS011;7934;48.710;9.024;2022-09-12T04:58:29;17.67;;;12.83;;
15667;SDS011;7934;48.710;9.024;2022-09-12T05:01:02;22.33;;;11.77;;
15667;SDS011;7934;48.710;9.024;2022-09-12T05:03:30;25.07;;;12.77;;
15667;SDS011;7934;48.710;9.024;2022-09-12T05:05:57;25.30;;;12.10;;
15667;SDS011;7934;48.710;9.024;2022-09-12T05:08:25;21.00;;;13.30;;
15667;SDS011;7934;48.710;9.024;2022-09-12T05:10:53;20.40;;;12.93;;
15667;SDS011;7934;48.710;9.024;2022-09-12T05:13:20;21.10;;;12.13;;
15667;SDS011;7934;48.710;9.024;2022-09-12T05:15:52;22.87;;;13.73;;
15667;SDS011;7934;48.710;9.024;2022-09-12T05:18:20;23.33;;;13.23;;
15667;SDS011;7934;48.710;9.024;2022-09-12T05:20:47;20.73;;;13.10;;
15667;SDS011;7934;48.710;9.024;2022-09-12T05:23:14;19.40;;;12.93;;
15667;SDS011;7934;48.710;9.024;2022-09-12T05:25:48;19.03;;;13.03;;
15667;SDS011;7934;48.710;9.024;2022-09-12T05:28:16;18.23;;;12.27;;
15667;SDS011;7934;48.710;9.024;2022-09-12T05:30:43;26.83;;;13.73;;
15667;SDS011;7934;48.710;9.024;2022-09-12T05:33:10;21.87;;;12.23;;
15667;SDS011;7934;48.710;9.024;2022-09-12T05:35:37;25.37;;;13.53;;
15667;SDS011;7934;48.710;9.024;2022-09-12T05:38:05;18.43;;;11.63;;
15667;SDS011;7934;48.710;9.024;2022-09-12T05:40:32;19.50;;;13.07;;
15667;SDS011;7934;48.710;9.024;2022-09-12T05:43:01;19.13;;;11.97;;
15667;SDS011;7934;48.710;9.024;2022-09-12T05:45:28;23.77;;;13.40;;
15667;SDS011;7934;48.710;9.024;2022-09-12T05:47:56;26.13;;;14.43;;
15667;SDS011;7934;48.710;9.024;2022-09-12T05:50:23;24.93;;;13.07;;
15667;SDS011;7934;48.710;9.024;2022-09-12T05:52:50;23.50;;;14.00;;
15667;SDS011;7934;48.710;9.024;2022-09-12T05:55:27;23.80;;;13.33;;
15667;SDS011;7934;48.710;9.024;2022-09-12T05:57:55;21.67;;;13.63;;
15667;SDS011;7934;48.710;9.024;2022-09-12T06:00:23;22.57;;;13.97;;
15667;SDS011;7934;48.710;9.024;2022-09-12T06:02:51;22.13;;;14.07;;
15667;SDS011;7934;48.710;9.024;2022-09-12T06:05:18;22.07;;;13.73;;
15667;SDS011;7934;48.710;9.024;2022-09-12T06:07:45;20.10;;;12.90;;
15667;SDS011;7934;48.710;9.024;2022-09-12T06:10:13;23.00;;;13.37;;
15667;SDS011;7934;48.710;9.024;2022-09-12T06:12:41;19.57;;;13.30;;
15667;SDS011;7934;48.710;9.024;2022-09-12T06:15:09;19.33;;;13.00;;
15667;SDS011;7934;48.710;9.024;2022-09-12T06:17:38;19.63;;;11.83;;
15667;SDS011;7934;48.710;9.024;2022-09-12T06:20:05;16.33;;;12.70;;
15667;SDS011;7934;48.710;9.024;2022-09-12T06:22:32;15.83;;;11.93;;
15667;SDS011;7934;48.710;9.024;2022-09-12T06:25:00;15.30;;;11.93;;
15667;SDS011;7934;48.710;9.024;2022-09-12T06:27:27;22.07;;;12.40;;
15667;SDS011;7934;48.710;9.024;2022-09-12T06:29:54;17.00;;;12.10;;
15667;SDS011;7934;48.710;9.024;2022-09-12T06:32:21;18.37;;;12.43;;
15667;SDS011;7934;48.710;9.024;2022-09-12T06:34:50;18.67;;;13.60;;
15667;SDS011;7934;48.710;9.024;2022-09-12T06:37:17;21.87;;;13.47;;
15667;SDS011;7934;48.710;9.024;2022-09-12T06:39:44;22.67;;;14.80;;
15667;SDS011;7934;48.710;9.024;2022-09-12T06:42:12;17.50;;;13.40;;
15667;SDS011;7934;48.710;9.024;2022-09-12T06:44:40;18.73;;;14.80;;
15667;SDS011;7934;48.710;9.024;2022-09-12T06:47:08;21.83;;;15.37;;
15667;SDS011;7934;48.710;9.024;2022-09-12T06:49:36;21.23;;;15.47;;
15667;SDS011;7934;48.710;9.024;2022-09-12T06:52:04;24.20;;;15.60;;
15667;SDS011;7934;48.710;9.024;2022-09-12T06:54:32;21.70;;;15.00;;
15667;SDS011;7934;48.710;9.024;2022-09-12T06:56:59;22.20;;;14.63;;
15667;SDS011;7934;48.710;9.024;2022-09-12T06:59:27;19.07;;;12.63;;
15667;SDS011;7934;48.710;9.024;2022-09-12T07:01:54;14.20;;;10.20;;
15667;SDS011;7934;48.710;9.024;2022-09-12T07:04:21;16.17;;;10.00;;
15667;SDS011;7934;48.710;9.024;2022-09-12T07:06:48;13.13;;;9.20;;
15667;SDS011;7934;48.710;9.024;2022-09-12T07:09:16;17.03;;;8.77;;
15667;SDS011;7934;48.710;9.024;2022-09-12T07:11:45;14.43;;;7.10;;
15667;SDS011;7934;48.710;9.024;2022-09-12T07:14:13;11.67;;;6.90;;
15667;SDS011;7934;48.710;9.024;2022-09-12T07:16:41;12.10;;;6.77;;
15667;SDS011;7934;48.710;9.024;2022-09-12T07:19:08;12.10;;;7.10;;
15667;SDS011;7934;48.710;9.024;2022-09-12T07:21:36;12.57;;;6.97;;
15667;SDS011;7934;48.710;9.024;2022-09-12T07:24:05;10.47;;;6.40;;
15667;SDS011;7934;48.710;9.024;2022-09-12T07:26:34;17.70;;;7.37;;
15667;SDS011;7934;48.710;9.024;2022-09-12T07:29:01;11.00;;;6.53;;
15667;SDS011;7934;48.710;9.024;2022-09-12T07:31:29;10.90;;;6.00;;
15667;SDS011;7934;48.710;9.024;2022-09-12T07:33:56;10.20;;;6.33;;
15667;SDS011;7934;48.710;9.024;2022-09-12T07:36:23;7.57;;;5.27;;
15667;SDS011;7934;48.710;9.024;2022-09-12T07:38:54;10.13;;;5.70;;
15667;SDS011;7934;48.710;9.024;2022-09-12T07:41:22;6.47;;;5.53;;
15667;SDS011;7934;48.710;9.024;2022-09-12T07:43:51;9.17;;;5.37;;
15667;SDS011;7934;48.710;9.024;2022-09-12T07:46:20;8.77;;;4.90;;
15667;SDS011;7934;48.710;9.024;2022-09-12T07:48:50;6.13;;;5.20;;
15667;SDS011;7934;48.710;9.024;2022-09-12T07:51:18;9.10;;;4.53;;
15667;SDS011;7934;48.710;9.024;2022-09-12T07:53:45;7.00;;;4.80;;
15667;SDS011;7934;48.710;9.024;2022-09-12T07:56:13;6.07;;;3.97;;
15667;SDS011;7934;48.710;9.024;2022-09-12T07:58:41;5.27;;;4.67;;
15667;SDS011;7934;48.710;9.024;2022-09-12T08:01:10;3.77;;;3.00;;
15667;SDS011;7934;48.710;9.024;2022-09-12T08:03:38;5.77;;;3.87;;
15667;SDS011;7934;48.710;9.024;2022-09-12T08:06:06;3.33;;;3.10;;
15667;SDS011;7934;48.710;9.024;2022-09-12T08:08:34;2.80;;;2.70;;
15667;SDS011;7934;48.710;9.024;2022-09-12T08:11:02;3.37;;;3.03;;
15667;SDS011;7934;48.710;9.024;2022-09-12T08:13:31;2.70;;;2.50;;
15667;SDS011;7934;48.710;9.024;2022-09-12T08:15:59;2.03;;;1.80;;
15667;SDS011;7934;48.710;9.024;2022-09-12T08:18:28;2.13;;;1.60;;
15667;SDS011;7934;48.710;9.024;2022-09-12T08:20:56;2.60;;;1.43;;
15667;SDS011;7934;48.710;9.024;2022-09-12T08:23:24;1.47;;;1.37;;
15667;SDS011;7934;48.710;9.024;2022-09-12T08:25:53;1.90;;;1.80;;
15667;SDS011;7934;48.710;9.024;2022-09-12T08:28:21;1.70;;;1.60;;
15667;SDS011;7934;48.710;9.024;2022-09-12T08:30:48;2.73;;;1.80;;
15667;SDS011;7934;48.710;9.024;2022-09-12T08:33:15;3.30;;;1.80;;
15667;SDS011;7934;48.710;9.024;2022-09-12T08:35:44;1.47;;;1.47;;
15667;SDS011;7934;48.710;9.024;2022-09-12T08:38:11;1.97;;;1.50;;
15667;SDS011;7934;48.710;9.024;2022-09-12T08:40:41;1.13;;;1.13;;
15667;SDS011;7934;48.710;9.024;2022-09-12T08:43:25;1.63;;;1.53;;
15667;SDS011;7934;48.710;9.024;2022-09-12T08:45:58;1.50;;;1.40;;
15667;SDS011;7934;48.710;9.024;2022-09-12T08:48:27;1.10;;;1.10;;
15667;SDS011;7934;48.710;9.024;2022-09-12T08:50:56;1.77;;;1.60;;
15667;SDS011;7934;48.710;9.024;2022-09-12T08:53:24;1.63;;;1.60;;
15667;SDS011;7934;48.710;9.024;2022-09-12T08:55:55;1.63;;;1.63;;
15667;SDS011;7934;48.710;9.024;2022-09-12T08:58:24;2.00;;;1.60;;
15667;SDS011;7934;48.710;9.024;2022-09-12T09:00:56;1.97;;;1.87;;
15667;SDS011;7934;48.710;9.024;2022-09-12T09:03:27;3.67;;;2.23;;
15667;SDS011;7934;48.710;9.024;2022-09-12T09:05:59;2.07;;;1.97;;
15667;SDS011;7934;48.710;9.024;2022-09-12T09:08:37;1.60;;;1.60;;
15667;SDS011;7934;48.710;9.024;2022-09-12T09:11:11;1.40;;;1.40;;
15667;SDS011;7934;48.710;9.024;2022-09-12T09:13:44;1.60;;;1.50;;
15667;SDS011;7934;48.710;9.024;2022-09-12T09:16:35;3.57;;;1.60;;
15667;SDS011;7934;48.710;9.024;2022-09-12T09:19:04;1.83;;;1.73;;
15667;SDS011;7934;48.710;9.024;2022-09-12T09:21:36;1.60;;;1.60;;
15667;SDS011;7934;48.710;9.024;2022-09-12T09:24:04;1.40;;;1.40;;
15667;SDS011;7934;48.710;9.024;2022-09-12T09:26:36;1.67;;;1.67;;
15667;SDS011;7934;48.710;9.024;2022-09-12T09:29:06;1.60;;;1.50;;
15667;SDS011;7934;48.710;9.024;2022-09-12T09:31:37;1.60;;;1.50;;
15667;SDS011;7934;48.710;9.024;2022-09-12T09:34:08;1.90;;;1.80;;
15667;SDS011;7934;48.710;9.024;2022-09-12T09:36:41;2.13;;;1.80;;
15667;SDS011;7934;48.710;9.024;2022-09-12T09:39:11;1.90;;;1.80;;
15667;SDS011;7934;48.710;9.024;2022-09-12T09:41:44;1.50;;;1.50;;
15667;SDS011;7934;48.710;9.024;2022-09-12T09:44:15;1.80;;;1.70;;
15667;SDS011;7934;48.710;9.024;2022-09-12T09:46:42;5.37;;;1.90;;
15667;SDS011;7934;48.710;9.024;2022-09-12T09:49:10;1.57;;;1.57;;
15667;SDS011;7934;48.710;9.024;2022-09-12T09:51:39;1.47;;;1.37;;
15667;SDS011;7934;48.710;9.024;2022-09-12T09:54:10;1.53;;;1.53;;
15667;SDS011;7934;48.710;9.024;2022-09-12T09:56:40;2.10;;;1.53;;
15667;SDS011;7934;48.710;9.024;2022-09-12T09:59:08;1.60;;;1.60;;
15667;SDS011;7934;48.710;9.024;2022-09-12T10:01:36;2.97;;;1.60;;
15667;SDS011;7934;48.710;9.024;2022-09-12T10:04:14;3.50;;;1.50;;
15667;SDS011;7934;48.710;9.024;2022-09-12T10:06:48;1.30;;;1.30;;
15667;SDS011;7934;48.710;9.024;2022-09-12T10:09:24;1.30;;;1.30;;
15667;SDS011;7934;48.710;9.024;2022-09-12T10:11:52;1.47;;;1.40;;
15667;SDS011;7934;48.710;9.024;2022-09-12T10:14:26;1.43;;;1.33;;
15667;SDS011;7934;48.710;9.024;2022-09-12T10:16:54;3.13;;;1.50;;
15667;SDS011;7934;48.710;9.024;2022-09-12T10:19:23;1.00;;;1.00;;
15667;SDS011;7934;48.710;9.024;2022-09-12T10:22:00;1.20;;;1.20;;
15667;SDS011;7934;48.710;9.024;2022-09-12T10:24:32;1.20;;;1.20;;
15667;SDS011;7934;48.710;9.024;2022-09-12T10:27:07;1.43;;;1.33;;
15667;SDS011;7934;48.710;9.024;2022-09-12T10:29:39;1.20;;;1.20;;
15667;SDS011;7934;48.710;9.024;2022-09-12T10:32:12;1.47;;;1.47;;
15667;SDS011;7934;48.710;9.024;2022-09-12T10:34:41;1.60;;;1.53;;
15667;SDS011;7934;48.710;9.024;2022-09-12T10:37:09;1.10;;;1.10;;
15667;SDS011;7934;48.710;9.024;2022-09-12T10:39:48;1.20;;;1.20;;
15667;SDS011;7934;48.710;9.024;2022-09-12T10:42:16;1.10;;;1.10;;
15667;SDS011;7934;48.710;9.024;2022-09-12T10:44:51;0.90;;;0.90;;
15667;SDS011;7934;48.710;9.024;2022-09-12T10:47:19;1.10;;;1.10;;
15667;SDS011;7934;48.710;9.024;2022-09-12T10:49:46;1.03;;;1.00;;
15667;SDS011;7934;48.710;9.024;2022-09-12T10:52:20;1.23;;;0.80;;
15667;SDS011;7934;48.710;9.024;2022-09-12T10:54:49;2.93;;;1.30;;
15667;SDS011;7934;48.710;9.024;2022-09-12T10:57:23;0.97;;;0.97;;
15667;SDS011;7934;48.710;9.024;2022-09-12T10:59:57;1.10;;;1.10;;
15667;SDS011;7934;48.710;9.024;2022-09-12T11:02:27;1.20;;;1.20;;
15667;SDS011;7934;48.710;9.024;2022-09-12T11:04:58;2.90;;;0.90;;
15667;SDS011;7934;48.710;9.024;2022-09-12T11:07:34;1.10;;;1.10;;
15667;SDS011;7934;48.710;9.024;2022-09-12T11:10:10;1.20;;;1.20;;
15667;SDS011;7934;48.710;9.024;2022-09-12T11:12:42;1.23;;;1.10;;
15667;SDS011;7934;48.710;9.024;2022-09-12T11:15:24;3.17;;;1.13;;
15667;SDS011;7934;48.710;9.024;2022-09-12T11:17:54;0.90;;;0.90;;
15667;SDS011;7934;48.710;9.024;2022-09-12T11:23:12;1.03;;;0.93;;
15667;SDS011;7934;48.710;9.024;2022-09-12T11:25:50;0.80;;;0.80;;
15667;SDS011;7934;48.710;9.024;2022-09-12T11:28:22;0.90;;;0.90;;
15667;SDS011;7934;48.710;9.024;2022-09-12T11:30:56;0.97;;;0.97;;
15667;SDS011;7934;48.710;9.024;2022-09-12T11:33:33;1.00;;;1.00;;
15667;SDS011;7934;48.710;9.024;2022-09-12T11:36:04;1.57;;;1.07;;
15667;SDS011;7934;48.710;9.024;2022-09-12T11:38:41;0.80;;;0.80;;
15667;SDS011;7934;48.710;9.024;2022-09-12T11:41:14;0.80;;;0.80;;
15667;SDS011;7934;48.710;9.024;2022-09-12T11:43:44;0.50;;;0.50;;
15667;SDS011;7934;48.710;9.024;2022-09-12T11:46:16;0.87;;;0.87;;
15667;SDS011;7934;48.710;9.024;2022-09-12T11:48:48;1.13;;;0.87;;
15667;SDS011;7934;48.710;9.024;2022-09-12T11:51:23;0.83;;;0.83;;
15667;SDS011;7934;48.710;9.024;2022-09-12T11:53:59;1.47;;;1.10;;
15667;SDS011;7934;48.710;9.024;2022-09-12T11:56:29;1.40;;;1.07;;
15667;SDS011;7934;48.710;9.024;2022-09-12T11:58:58;1.10;;;1.10;;
15667;SDS011;7934;48.710;9.024;2022-09-12T12:01:27;0.93;;;0.93;;
15667;SDS011;7934;48.710;9.024;2022-09-12T12:03:55;1.00;;;1.00;;
15667;SDS011;7934;48.710;9.024;2022-09-12T12:06:23;1.00;;;1.00;;
15667;SDS011;7934;48.710;9.024;2022-09-12T12:08:52;1.00;;;1.00;;
15667;SDS011;7934;48.710;9.024;2022-09-12T12:11:27;0.83;;;0.80;;
15667;SDS011;7934;48.710;9.024;2022-09-12T12:13:57;0.70;;;0.70;;
15667;SDS011;7934;48.710;9.024;2022-09-12T12:16:26;1.20;;;1.20;;
15667;SDS011;7934;48.710;9.024;2022-09-12T12:18:54;1.50;;;0.90;;
15667;SDS011;7934;48.710;9.024;2022-09-12T12:21:35;2.93;;;1.00;;
15667;SDS011;7934;48.710;9.024;2022-09-12T12:24:14;1.10;;;1.10;;
15667;SDS011;7934;48.710;9.024;2022-09-12T12:29:37;0.83;;;0.80;;
15667;SDS011;7934;48.710;9.024;2022-09-12T12:32:21;3.53;;;1.00;;
15667;SDS011;7934;48.710;9.024;2022-09-12T12:34:49;0.87;;;0.87;;
15667;SDS011;7934;48.710;9.024;2022-09-12T12:40:07;0.90;;;0.90;;
15667;SDS011;7934;48.710;9.024;2022-09-12T12:45:47;0.87;;;0.87;;
15667;SDS011;7934;48.710;9.024;2022-09-12T12:48:15;1.00;;;1.00;;
15667;SDS011;7934;48.710;9.024;2022-09-12T12:50:44;0.90;;;0.90;;
15667;SDS011;7934;48.710;9.024;2022-09-12T12:54:46;1.70;;;1.00;;
15667;SDS011;7934;48.710;9.024;2022-09-12T12:56:27;0.90;;;0.90;;
15667;SDS011;7934;48.710;9.024;2022-09-12T12:58:58;3.80;;;1.20;;
15667;SDS011;7934;48.710;9.024;2022-09-12T13:01:27;0.80;;;0.80;;
15667;SDS011;7934;48.710;9.024;2022-09-12T13:03:56;1.00;;;1.00;;
15667;SDS011;7934;48.710;9.024;2022-09-12T13:06:28;0.87;;;0.87;;
15667;SDS011;7934;48.710;9.024;2022-09-12T13:08:58;1.20;;;1.10;;
15667;SDS011;7934;48.710;9.024;2022-09-12T13:11:27;0.90;;;0.90;;
15667;SDS011;7934;48.710;9.024;2022-09-12T13:13:56;0.87;;;0.87;;
15667;SDS011;7934;48.710;9.024;2022-09-12T13:16:33;1.00;;;1.00;;
15667;SDS011;7934;48.710;9.024;2022-09-12T13:19:01;2.90;;;1.10;;
15667;SDS011;7934;48.710;9.024;2022-09-12T13:21:29;0.97;;;0.93;;
15667;SDS011;7934;48.710;9.024;2022-09-12T13:24:00;0.70;;;0.70;;
15667;SDS011;7934;48.710;9.024;2022-09-12T13:26:31;1.00;;;1.00;;
15667;SDS011;7934;48.710;9.024;2022-09-12T13:29:07;0.93;;;0.93;;
15667;SDS011;7934;48.710;9.024;2022-09-12T13:31:36;0.90;;;0.90;;
15667;SDS011;7934;48.710;9.024;2022-09-12T13:34:04;1.63;;;1.10;;
15667;SDS011;7934;48.710;9.024;2022-09-12T13:36:43;3.13;;;1.00;;
15667;SDS011;7934;48.710;9.024;2022-09-12T13:39:13;1.13;;;0.90;;
15667;SDS011;7934;48.710;9.024;2022-09-12T13:41:48;2.73;;;0.90;;
15667;SDS011;7934;48.710;9.024;2022-09-12T13:44:19;1.10;;;1.10;;
15667;SDS011;7934;48.710;9.024;2022-09-12T13:46:49;1.03;;;1.03;;
15667;SDS011;7934;48.710;9.024;2022-09-12T13:49:18;0.80;;;0.80;;
15667;SDS011;7934;48.710;9.024;2022-09-12T13:51:50;1.30;;;0.95;;
15667;SDS011;7934;48.710;9.024;2022-09-12T13:54:21;1.90;;;0.80;;
15667;SDS011;7934;48.710;9.024;2022-09-12T13:56:48;0.90;;;0.90;;
15667;SDS011;7934;48.710;9.024;2022-09-12T13:59:16;1.10;;;1.00;;
15667;SDS011;7934;48.710;9.024;2022-09-12T14:01:44;2.23;;;1.43;;
15667;SDS011;7934;48.710;9.024;2022-09-12T14:04:15;0.80;;;0.80;;
15667;SDS011;7934;48.710;9.024;2022-09-12T14:07:02;2.40;;;1.23;;
15667;SDS011;7934;48.710;9.024;2022-09-12T14:09:36;0.90;;;0.90;;
15667;SDS011;7934;48.710;9.024;2022-09-12T14:12:03;2.33;;;0.73;;
15667;SDS011;7934;48.710;9.024;2022-09-12T14:14:32;0.90;;;0.90;;
15667;SDS011;7934;48.710;9.024;2022-09-12T14:17:00;0.90;;;0.90;;
15667;SDS011;7934;48.710;9.024;2022-09-12T14:19:41;2.00;;;1.00;;
15667;SDS011;7934;48.710;9.024;2022-09-12T14:22:11;1.00;;;1.00;;
15667;SDS011;7934;48.710;9.024;2022-09-12T14:24:42;1.07;;;1.07;;
15667;SDS011;7934;48.710;9.024;2022-09-12T14:27:12;1.57;;;1.30;;
15667;SDS011;7934;48.710;9.024;2022-09-12T14:29:40;1.63;;;1.03;;
15667;SDS011;7934;48.710;9.024;2022-09-12T14:32:21;1.13;;;1.13;;
15667;SDS011;7934;48.710;9.024;2022-09-12T14:35:12;1.30;;;1.30;;
15667;SDS011;7934;48.710;9.024;2022-09-12T14:37:45;1.40;;;1.40;;
15667;SDS011;7934;48.710;9.024;2022-09-12T14:40:14;1.30;;;1.20;;
15667;SDS011;7934;48.710;9.024;2022-09-12T14:42:43;1.87;;;1.17;;
15667;SDS011;7934;48.710;9.024;2022-09-12T14:45:14;1.13;;;1.13;;
15667;SDS011;7934;48.710;9.024;2022-09-12T14:47:42;1.00;;;1.00;;
15667;SDS011;7934;48.710;9.024;2022-09-12T14:50:16;1.37;;;1.10;;
15667;SDS011;7934;48.710;9.024;2022-09-12T14:52:43;1.30;;;1.20;;
15667;SDS011;7934;48.710;9.024;2022-09-12T14:55:20;1.20;;;1.10;;
15667;SDS011;7934;48.710;9.024;2022-09-12T15:00:31;1.30;;;1.17;;
15667;SDS011;7934;48.710;9.024;2022-09-12T15:03:14;0.90;;;0.90;;
15667;SDS011;7934;48.710;9.024;2022-09-12T15:05:48;1.23;;;1.13;;
15667;SDS011;7934;48.710;9.024;2022-09-12T15:08:15;1.10;;;1.10;;
15667;SDS011;7934;48.710;9.024;2022-09-12T15:10:43;0.90;;;0.90;;
15667;SDS011;7934;48.710;9.024;2022-09-12T15:13:11;1.17;;;1.17;;
15667;SDS011;7934;48.710;9.024;2022-09-12T15:15:40;3.23;;;1.30;;
15667;SDS011;7934;48.710;9.024;2022-09-12T15:18:08;1.60;;;1.50;;
15667;SDS011;7934;48.710;9.024;2022-09-12T15:20:38;2.67;;;1.33;;
15667;SDS011;7934;48.710;9.024;2022-09-12T15:23:30;2.00;;;1.40;;
15667;SDS011;7934;48.710;9.024;2022-09-12T15:25:59;3.40;;;1.00;;